createdAt,value
2018-07-20T00:01:12.663Z,14.10
2018-07-20T00:03:40.100Z,14.10
2018-07-20T00:06:07.473Z,14.00
2018-07-20T00:08:34.919Z,13.90
2018-07-20T00:11:02.291Z,13.70
2018-07-20T00:13:29.626Z,13.60
2018-07-20T00:18:24.259Z,13.50
2018-07-20T00:20:51.593Z,13.50
2018-07-20T00:23:19.000Z,13.40
2018-07-20T00:25:46.320Z,13.40
2018-07-20T00:28:13.679Z,13.40
2018-07-20T00:30:41.115Z,13.50
2018-07-20T00:35:35.674Z,13.60
2018-07-20T00:38:02.988Z,13.60
2018-07-20T00:40:30.373Z,13.50
2018-07-20T00:42:57.699Z,13.40
2018-07-20T00:45:25.087Z,13.40
2018-07-20T00:47:52.408Z,13.50
2018-07-20T00:50:19.985Z,13.50
2018-07-20T00:52:47.621Z,13.50
2018-07-20T00:55:15.130Z,13.50
2018-07-20T00:57:42.569Z,13.40
2018-07-20T01:00:10.012Z,13.20
2018-07-20T01:02:37.611Z,13.00
2018-07-20T01:05:05.331Z,12.90
2018-07-20T01:09:59.838Z,12.90
2018-07-20T01:14:54.439Z,13.00
2018-07-20T01:19:48.880Z,13.20
2018-07-20T01:22:16.214Z,13.20
2018-07-20T01:24:43.581Z,13.10
2018-07-20T01:27:10.945Z,13.00
2018-07-20T01:29:38.304Z,13.00
2018-07-20T01:32:05.631Z,12.90
2018-07-20T01:37:00.162Z,12.60
2018-07-20T01:39:27.525Z,12.60
2018-07-20T01:41:54.880Z,12.60
2018-07-20T01:44:22.235Z,12.70
2018-07-20T01:46:49.707Z,12.60
2018-07-20T01:49:17.047Z,12.60
2018-07-20T01:51:44.408Z,12.50
2018-07-20T01:54:11.767Z,12.40
2018-07-20T01:56:39.167Z,12.40
2018-07-20T01:59:06.461Z,12.40
2018-07-20T02:01:33.832Z,12.40
2018-07-20T02:04:01.295Z,12.40
2018-07-20T02:06:28.621Z,12.30
2018-07-20T02:08:56.117Z,12.30
2018-07-20T02:11:23.442Z,12.30
2018-07-20T02:16:17.930Z,12.30
2018-07-20T02:18:45.421Z,12.30
2018-07-20T02:21:12.759Z,12.30
2018-07-20T02:23:40.139Z,12.20
2018-07-20T02:26:07.492Z,12.10
2018-07-20T02:28:34.825Z,12.10
2018-07-20T02:33:29.372Z,12.00
2018-07-20T02:35:56.716Z,11.90
2018-07-20T02:38:24.057Z,11.90
2018-07-20T02:40:51.537Z,11.90
2018-07-20T02:43:18.858Z,11.80
2018-07-20T02:48:13.398Z,11.70
2018-07-20T02:50:40.823Z,11.70
2018-07-20T02:55:35.358Z,11.60
2018-07-20T02:58:02.728Z,11.60
2018-07-20T03:00:30.192Z,11.60
2018-07-20T03:02:57.517Z,11.70
2018-07-20T03:05:24.993Z,11.70
2018-07-20T03:07:52.331Z,11.70
2018-07-20T03:10:19.710Z,11.70
2018-07-20T03:12:47.038Z,11.60
2018-07-20T03:15:14.416Z,11.70
2018-07-20T03:17:41.758Z,11.80
2018-07-20T03:20:09.124Z,11.90
2018-07-20T03:22:36.502Z,11.90
2018-07-20T03:25:03.827Z,11.80
2018-07-20T03:27:31.301Z,11.80
2018-07-20T03:29:58.632Z,11.80
2018-07-20T03:32:26.126Z,11.90
2018-07-20T03:34:53.455Z,11.90
2018-07-20T03:37:21.040Z,11.80
2018-07-20T03:39:48.378Z,11.60
2018-07-20T03:42:15.724Z,11.40
2018-07-20T03:44:43.094Z,11.40
2018-07-20T03:47:10.531Z,11.30
2018-07-20T03:52:04.978Z,11.20
2018-07-20T03:54:32.440Z,11.30
2018-07-20T03:56:59.775Z,11.50
2018-07-20T03:59:27.130Z,11.80
2018-07-20T04:01:54.487Z,12.10
2018-07-20T04:04:21.922Z,12.30
2018-07-20T04:14:10.748Z,14.10
2018-07-20T04:16:38.333Z,14.60
2018-07-20T04:19:05.775Z,14.90
2018-07-20T04:21:33.245Z,15.10
2018-07-20T04:24:00.606Z,15.30
2018-07-20T04:26:28.001Z,15.50
2018-07-20T04:28:55.613Z,16.00
2018-07-20T04:31:22.962Z,16.30
2018-07-20T04:33:50.346Z,16.80
2018-07-20T04:36:17.681Z,17.20
2018-07-20T04:38:45.091Z,17.90
2018-07-20T04:41:12.539Z,18.30
2018-07-20T04:43:39.935Z,18.30
2018-07-20T04:46:07.320Z,18.20
2018-07-20T04:48:34.645Z,18.20
2018-07-20T04:51:02.052Z,18.70
2018-07-20T04:53:29.479Z,18.90
2018-07-20T04:55:56.840Z,19.20
2018-07-20T04:58:24.218Z,19.50
2018-07-20T05:00:51.527Z,19.90
2018-07-20T05:03:18.909Z,20.20
2018-07-20T05:05:46.264Z,20.60
2018-07-20T05:08:13.628Z,21.00
2018-07-20T05:10:40.944Z,21.30
2018-07-20T05:15:35.471Z,21.70
2018-07-20T05:18:02.959Z,22.10
2018-07-20T05:20:30.286Z,22.90
2018-07-20T05:22:57.623Z,23.50
2018-07-20T05:27:52.661Z,23.80
2018-07-20T05:30:20.021Z,24.10
2018-07-20T05:32:47.377Z,24.50
2018-07-20T05:35:14.735Z,24.90
2018-07-20T05:37:42.173Z,25.20
2018-07-20T05:40:09.550Z,25.30
2018-07-20T05:42:36.994Z,25.30
2018-07-20T05:45:04.367Z,25.50
2018-07-20T05:47:31.803Z,25.70
2018-07-20T05:49:59.177Z,25.90
2018-07-20T05:52:26.602Z,26.10
2018-07-20T05:57:21.033Z,26.20
2018-07-20T05:59:48.378Z,26.10
2018-07-20T06:04:43.194Z,25.90
2018-07-20T06:07:10.571Z,26.30
2018-07-20T06:09:37.901Z,26.00
2018-07-20T06:14:32.582Z,23.40
2018-07-20T06:16:59.996Z,22.60
2018-07-20T06:19:27.359Z,21.90
2018-07-20T06:21:54.788Z,21.60
2018-07-20T06:24:22.184Z,21.30
2018-07-20T06:26:49.502Z,21.40
2018-07-20T06:29:16.895Z,21.40
2018-07-20T06:31:44.319Z,21.30
2018-07-20T06:34:11.690Z,21.40
2018-07-20T06:36:39.130Z,21.50
2018-07-20T06:39:07.531Z,21.70
2018-07-20T06:41:34.975Z,21.80
2018-07-20T06:44:02.577Z,21.80
2018-07-20T06:46:29.910Z,22.20
2018-07-20T06:48:57.346Z,22.30
2018-07-20T06:51:24.741Z,22.50
2018-07-20T06:53:52.063Z,22.30
2018-07-20T06:56:19.451Z,22.30
2018-07-20T06:58:46.868Z,22.30
2018-07-20T07:03:41.415Z,22.30
2018-07-20T07:06:08.874Z,22.30
2018-07-20T07:08:36.224Z,22.60
2018-07-20T07:11:03.704Z,22.80
2018-07-20T07:13:31.332Z,23.00
2018-07-20T07:15:58.908Z,23.10
2018-07-20T07:18:26.334Z,23.10
2018-07-20T07:23:20.963Z,23.30
2018-07-20T07:25:48.326Z,23.30
2018-07-20T07:28:15.788Z,23.60
2018-07-20T07:30:43.116Z,23.70
2018-07-20T07:35:40.126Z,24.10
2018-07-20T07:38:07.884Z,24.10
2018-07-20T07:40:35.648Z,24.00
2018-07-20T07:43:03.006Z,24.30
2018-07-20T07:45:30.449Z,24.40
2018-07-20T07:47:57.915Z,24.60
2018-07-20T07:50:25.184Z,24.80
2018-07-20T07:52:52.524Z,25.00
2018-07-20T07:55:19.901Z,25.10
2018-07-20T07:57:47.375Z,25.10
2018-07-20T08:00:14.708Z,25.20
2018-07-20T08:02:42.050Z,25.10
2018-07-20T08:05:09.468Z,24.90
2018-07-20T08:12:33.626Z,25.50
2018-07-20T08:15:00.846Z,25.80
2018-07-20T08:17:28.120Z,25.80
2018-07-20T08:19:55.345Z,25.90
2018-07-20T08:22:22.585Z,26.00
2018-07-20T08:24:49.830Z,26.20
2018-07-20T08:27:17.154Z,26.30
2018-07-20T08:29:44.689Z,26.60
2018-07-20T08:32:11.926Z,26.50
2018-07-20T08:37:07.968Z,26.50
2018-07-20T08:42:02.381Z,26.70
2018-07-20T08:46:56.909Z,27.00
2018-07-20T08:49:24.173Z,27.00
2018-07-20T08:51:51.425Z,26.90
2018-07-20T08:54:18.679Z,26.70
2018-07-20T08:56:45.950Z,26.90
2018-07-20T08:59:13.422Z,27.00
2018-07-20T09:01:40.623Z,27.20
2018-07-20T09:04:07.873Z,27.40
2018-07-20T09:06:35.147Z,27.70
2018-07-20T09:09:02.406Z,27.40
2018-07-20T09:11:29.684Z,27.60
2018-07-20T09:13:57.153Z,27.90
2018-07-20T09:16:24.409Z,27.70
2018-07-20T09:18:51.648Z,27.70
2018-07-20T09:21:18.920Z,28.10
2018-07-20T09:23:46.135Z,28.30
2018-07-20T09:26:13.385Z,28.40
2018-07-20T09:28:40.635Z,28.70
2018-07-20T09:31:07.902Z,29.30
2018-07-20T09:33:35.154Z,28.90
2018-07-20T09:36:02.442Z,29.20
2018-07-20T09:38:29.694Z,29.50
2018-07-20T09:40:56.940Z,29.30
2018-07-20T09:43:24.172Z,29.10
2018-07-20T09:45:51.429Z,29.10
2018-07-20T09:48:18.699Z,28.50
2018-07-20T09:50:45.911Z,28.10
2018-07-20T09:53:13.202Z,28.20
2018-07-20T09:55:40.451Z,28.70
2018-07-20T09:58:07.724Z,29.50
2018-07-20T10:00:36.985Z,29.00
2018-07-20T10:03:04.362Z,29.40
2018-07-20T10:05:31.636Z,29.90
2018-07-20T10:07:58.892Z,29.70
2018-07-20T10:10:26.151Z,28.90
2018-07-20T10:12:53.444Z,29.30
2018-07-20T10:15:20.727Z,29.60
2018-07-20T10:17:47.995Z,30.20
2018-07-20T10:20:15.215Z,30.40
2018-07-20T10:22:42.484Z,30.50
2018-07-20T10:25:09.722Z,30.80
2018-07-20T10:27:37.115Z,30.60
2018-07-20T10:30:04.849Z,30.80
2018-07-20T10:32:32.127Z,30.20
2018-07-20T10:34:59.349Z,29.60
2018-07-20T10:37:26.592Z,29.70
2018-07-20T10:42:22.323Z,29.60
2018-07-20T10:47:19.052Z,29.50
2018-07-20T10:49:47.015Z,29.40
2018-07-20T10:52:15.007Z,29.60
2018-07-20T10:54:43.017Z,29.50
2018-07-20T10:57:10.996Z,29.40
2018-07-20T10:59:38.967Z,29.30
2018-07-20T11:02:07.065Z,29.20
2018-07-20T11:04:34.993Z,29.20
2018-07-20T11:07:02.924Z,29.30
2018-07-20T11:09:30.868Z,29.10
2018-07-20T11:11:58.785Z,29.00
2018-07-20T11:14:26.727Z,29.10
2018-07-20T11:16:54.726Z,29.10
2018-07-20T11:19:22.608Z,28.90
2018-07-20T11:21:50.575Z,29.10
2018-07-20T13:37:58.673Z,29.60
2018-07-20T13:40:26.731Z,29.60
2018-07-20T13:42:54.756Z,29.90
2018-07-20T13:45:22.732Z,29.80
2018-07-20T13:47:50.822Z,29.90
2018-07-20T13:50:18.791Z,30.20
2018-07-20T13:52:46.870Z,30.10
2018-07-20T13:55:14.776Z,30.10
2018-07-20T13:57:42.832Z,30.30
2018-07-20T14:00:10.815Z,30.40
2018-07-20T14:02:38.814Z,30.60
2018-07-20T14:05:06.736Z,30.20
2018-07-20T14:07:35.528Z,30.20
2018-07-20T14:10:03.756Z,30.20
2018-07-20T14:12:31.731Z,30.30
2018-07-20T14:14:59.661Z,30.30
2018-07-20T14:17:27.636Z,30.50
2018-07-20T14:19:55.600Z,30.30
2018-07-20T14:22:23.540Z,30.30
2018-07-20T14:29:46.968Z,30.80
2018-07-20T14:32:14.905Z,31.00
2018-07-20T14:34:42.852Z,31.30
2018-07-20T14:37:10.842Z,31.30
2018-07-20T14:42:06.645Z,31.30
2018-07-20T14:44:34.516Z,31.10
2018-07-20T14:47:02.455Z,30.80
2018-07-20T14:49:30.379Z,30.80
2018-07-20T14:51:58.276Z,30.70
2018-07-20T14:54:26.199Z,30.60
2018-07-20T14:56:54.393Z,30.20
2018-07-20T14:59:22.345Z,30.10
2018-07-20T15:01:50.280Z,30.00
2018-07-20T15:04:18.159Z,30.00
2018-07-20T15:06:46.179Z,30.20
2018-07-20T15:09:14.087Z,30.40
2018-07-20T15:11:42.005Z,30.50
2018-07-20T15:14:10.316Z,30.50
2018-07-20T15:16:38.276Z,30.50
2018-07-20T15:21:34.401Z,30.20
2018-07-20T15:24:02.325Z,30.20
2018-07-20T15:26:30.296Z,30.20
2018-07-20T15:28:58.519Z,30.20
2018-07-20T15:31:26.703Z,30.30
2018-07-20T15:33:54.641Z,30.00
2018-07-20T15:36:22.612Z,29.90
2018-07-20T15:38:50.566Z,29.60
2018-07-20T15:41:18.517Z,29.10
2018-07-20T15:43:46.469Z,29.10
2018-07-20T15:46:14.399Z,29.00
2018-07-20T15:48:42.335Z,28.90
2018-07-20T15:51:10.250Z,28.80
2018-07-20T15:53:38.239Z,28.80
2018-07-20T15:56:06.145Z,28.80
2018-07-20T15:58:34.078Z,28.90
2018-07-20T16:03:29.809Z,29.40
2018-07-20T16:05:57.812Z,29.40
2018-07-20T16:08:25.868Z,29.30
2018-07-20T16:13:21.587Z,29.40
2018-07-20T16:15:49.573Z,29.30
2018-07-20T16:23:13.100Z,29.70
2018-07-20T16:25:41.127Z,29.90
2018-07-20T16:28:09.112Z,29.80
2018-07-20T16:30:37.030Z,29.90
2018-07-20T16:33:04.996Z,30.00
2018-07-20T16:35:32.910Z,30.10
2018-07-20T16:38:00.842Z,30.10
2018-07-20T16:40:28.745Z,30.20
2018-07-20T16:42:56.720Z,30.90
2018-07-20T16:45:24.664Z,32.00
2018-07-20T16:47:52.621Z,32.70
2018-07-20T16:50:20.537Z,33.60
2018-07-20T16:52:48.504Z,33.70
2018-07-20T16:55:16.459Z,33.20
2018-07-20T16:57:44.434Z,33.00
2018-07-20T17:00:12.368Z,32.90
2018-07-20T17:02:40.326Z,33.30
2018-07-20T17:05:08.273Z,33.30
2018-07-20T17:07:36.228Z,33.80
2018-07-20T17:10:04.783Z,33.60
2018-07-20T17:12:32.777Z,32.80
2018-07-20T17:15:00.677Z,32.40
2018-07-20T17:19:56.288Z,31.30
2018-07-20T17:22:24.233Z,30.90
2018-07-20T17:24:52.132Z,30.80
2018-07-20T17:27:19.367Z,30.70
2018-07-20T17:29:46.602Z,30.50
2018-07-20T17:32:13.834Z,30.20
2018-07-20T17:34:41.070Z,29.80
2018-07-20T17:37:08.363Z,29.40
2018-07-20T17:39:36.323Z,29.10
2018-07-20T17:42:04.354Z,28.70
2018-07-20T17:44:32.236Z,28.40
2018-07-20T17:47:00.224Z,28.20
2018-07-20T17:49:28.229Z,27.90
2018-07-20T17:51:56.201Z,27.60
2018-07-20T17:54:24.132Z,27.30
2018-07-20T17:56:52.098Z,27.00
2018-07-20T17:59:20.027Z,26.80
2018-07-20T18:01:47.928Z,26.60
2018-07-20T18:04:15.863Z,26.40
2018-07-20T18:06:43.774Z,26.20
2018-07-20T18:09:11.737Z,25.90
2018-07-20T18:11:39.677Z,25.60
2018-07-20T18:14:07.624Z,25.30
2018-07-20T18:16:35.651Z,25.10
2018-07-20T18:19:03.612Z,24.90
2018-07-20T18:23:59.337Z,24.60
2018-07-20T18:28:55.014Z,24.30
2018-07-20T18:31:22.961Z,24.20
2018-07-20T18:33:51.015Z,24.10
2018-07-20T18:36:18.924Z,24.00
2018-07-20T18:38:46.884Z,24.10
2018-07-20T18:41:14.787Z,24.20
2018-07-20T18:43:42.749Z,24.30
2018-07-20T18:46:10.736Z,24.20
2018-07-20T18:48:38.694Z,24.00
2018-07-20T18:51:06.898Z,23.70
2018-07-20T18:53:34.853Z,23.70
2018-07-20T18:56:02.773Z,23.50
2018-07-20T18:58:30.710Z,23.40
2018-07-20T19:00:58.660Z,23.20
2018-07-20T19:03:26.569Z,23.00
2018-07-20T19:08:22.252Z,22.70
2018-07-20T19:10:50.229Z,22.60
2018-07-20T19:13:18.282Z,22.40
2018-07-20T19:15:46.241Z,22.30
2018-07-20T19:18:14.157Z,22.20
2018-07-20T19:20:42.054Z,22.20
2018-07-20T19:23:10.027Z,22.00
2018-07-20T19:30:33.512Z,21.80
2018-07-20T19:33:01.451Z,21.60
2018-07-20T19:35:29.393Z,21.50
2018-07-20T19:37:57.419Z,21.30
2018-07-20T19:43:10.458Z,21.00
2018-07-20T19:45:38.410Z,21.00
2018-07-20T19:48:06.303Z,20.80
2018-07-20T19:50:34.221Z,20.70
2018-07-20T19:53:02.154Z,20.60
2018-07-20T19:57:57.874Z,20.40
2018-07-20T20:00:25.809Z,20.40
2018-07-20T20:02:53.712Z,20.30
2018-07-20T20:05:21.694Z,20.40
2018-07-20T20:07:49.706Z,20.50
2018-07-20T20:10:17.634Z,20.50
2018-07-20T20:12:45.617Z,20.50
2018-07-20T20:17:41.387Z,20.50
2018-07-20T20:20:11.458Z,20.40
2018-07-20T20:22:39.513Z,20.60
2018-07-20T20:25:07.441Z,21.10
2018-07-20T20:27:35.438Z,21.50
2018-07-20T20:30:03.494Z,21.80
2018-07-20T20:32:31.500Z,22.00
2018-07-20T20:34:59.451Z,22.10
2018-07-20T20:37:27.481Z,22.20
2018-07-20T20:44:50.963Z,22.50
2018-07-20T20:47:18.879Z,22.40
2018-07-20T20:49:46.876Z,22.30
2018-07-20T20:52:14.818Z,22.30
2018-07-20T20:54:42.770Z,22.30
2018-07-20T20:59:38.477Z,22.30
2018-07-20T21:02:06.577Z,22.50
2018-07-20T21:07:02.303Z,23.10
2018-07-20T21:09:30.257Z,22.50
2018-07-20T21:11:58.303Z,22.10
2018-07-20T21:14:26.179Z,22.00
2018-07-20T21:16:54.133Z,21.50
2018-07-20T21:19:22.071Z,21.20
2018-07-20T21:21:49.992Z,20.80
2018-07-20T21:24:17.902Z,20.60
2018-07-20T21:29:13.575Z,20.50
2018-07-20T21:31:41.541Z,20.40
2018-07-20T21:34:09.543Z,20.30
2018-07-20T21:36:37.531Z,20.30
2018-07-20T21:39:08.157Z,20.20
2018-07-20T21:41:36.353Z,20.00
2018-07-20T21:44:05.000Z,19.90
2018-07-20T21:46:32.948Z,19.70
2018-07-20T21:49:00.840Z,19.70
2018-07-20T21:51:28.782Z,19.60
2018-07-20T21:53:56.751Z,19.50
2018-07-20T21:56:24.728Z,19.60
2018-07-20T21:58:52.922Z,19.60
2018-07-20T22:01:20.954Z,19.70
2018-07-20T22:03:48.944Z,19.80
2018-07-20T22:06:16.886Z,19.90
2018-07-20T22:16:08.157Z,19.80
2018-07-20T22:21:05.794Z,19.70
2018-07-20T22:26:06.079Z,19.70
2018-07-20T22:28:35.808Z,19.80
2018-07-20T22:31:05.406Z,19.80
2018-07-20T22:33:42.168Z,19.80
2018-07-20T22:36:18.459Z,19.80
2018-07-20T22:38:54.751Z,19.70
2018-07-20T22:41:26.033Z,19.60
2018-07-20T22:43:57.096Z,19.50
2018-07-20T22:46:28.290Z,19.50
2018-07-20T22:48:56.567Z,19.50
2018-07-20T22:51:25.355Z,19.40
2018-07-20T22:53:53.504Z,19.40
2018-07-20T22:58:49.943Z,19.40
2018-07-20T23:06:13.863Z,19.30
2018-07-20T23:11:10.468Z,19.00
2018-07-20T23:13:38.743Z,19.00
2018-07-20T23:16:06.805Z,18.90
2018-07-20T23:18:34.848Z,18.80
2018-07-20T23:21:03.048Z,18.70
2018-07-20T23:23:31.225Z,18.50
2018-07-20T23:25:59.327Z,18.40
2018-07-20T23:28:27.389Z,18.30
2018-07-20T23:30:55.520Z,18.30
2018-07-20T23:33:23.622Z,18.30
2018-07-20T23:35:51.673Z,18.30
2018-07-20T23:38:19.786Z,18.30
2018-07-20T23:40:48.160Z,18.30
2018-07-20T23:43:16.301Z,18.40
2018-07-20T23:45:44.511Z,18.30
2018-07-20T23:48:12.644Z,18.30
2018-07-20T23:53:08.612Z,18.20
2018-07-20T23:55:36.701Z,18.10
2018-07-20T23:58:04.863Z,18.00
